INFORMACIÓN METAR y TAF
METAR FOR LESO
ADDS - METARS form results

(0129 UTC 15 August 2020)
Data provider http://aviationweather.gov/metar/data/
 
METAR text: LESO 150100Z AUTO VRB02KT 9999 OVC023 22/18 Q1015
Conditions at: LESO (SAN SEBASTIAN/FU, ES) observed 0100 UTC 15 August 2020
Temperature: 22.0°C (72°F)
Dewpoint: 18.0°C (64°F) [RH = 78%]
Pressure (altimeter): 29.97 inches Hg (1015.0 mb)
Winds: variable direction winds at 2 MPH (2 knots; 1.0 m/s)
Visibility: 6 or more miles (10+ km)
Ceiling: 2300 feet AGL
Clouds: overcast cloud deck at 2300 feet AGL
Weather: no significant weather observed at this time

METAR text: LESO 150030Z AUTO VRB01KT 9999 BKN021 22/18 Q1015
Conditions at: LESO (SAN SEBASTIAN/FU, ES) observed 0030 UTC 15 August 2020
Temperature: 22.0°C (72°F)
Dewpoint: 18.0°C (64°F) [RH = 78%]
Pressure (altimeter): 29.97 inches Hg (1015.0 mb)
Winds: variable direction winds at 1 MPH (1 knots; 0.5 m/s)
Visibility: 6 or more miles (10+ km)
Ceiling: 2100 feet AGL
Clouds: broken clouds at 2100 feet AGL
Weather: no significant weather observed at this time

Forecast for: LESO (SAN SEBASTIAN/FU, ES)
Text: TAF LESO 142300Z 1500/1524 VRB05KT 9999 SCT025 SCT035 TX27/1513Z TN18/1505Z
Forecast period: 0000 UTC 15 August 2020 to 0000 UTC 16 August 2020
Forecast type: FROM: standard forecast or significant change
Winds: variable direction winds at 6 MPH (5 knots; 2.6 m/s)
Visibility: 6 or more miles (10+ km)
Ceiling: at least 12,000 feet AGL
Clouds: scattered clouds at 2500 feet AGL
scattered clouds at 3500 feet AGL
Weather: no significant weather forecast for this period
Text: PROB40
Forecast period: 0900 to 2100 UTC 15 August 2020
Forecast type: TEMPORARY: The following changes expected for less than half the time period
Winds: from the NW (320 degrees) at 12 MPH (10 knots; 5.1 m/s)
Visibility: 1.86 miles (2.99 km)
Ceiling: at least 12,000 feet AGL
Clouds: scattered clouds at 2500 feet AGL
Weather: SHRA  (rain showers)

MAPA DE AEROPUERTO

INFORMACIÓN DE PISTA
Pista 04 Longitud 5755 ft Ancho 148 ft
Elevación 10 ft Umbral desplazado 0 ft Rumbo de pista 39
Pista 22 Longitud 5755 ft Ancho 148 ft
Elevación 15 ft Umbral desplazado 0 ft Rumbo de pista 219

FRECUANCIAS DEL AEROPUERTO
Tipo TWR Nombre SAN SEBAST Frecuencia 119.85 MHZ

RADIO AYUDAS DEL AEROPUERTO
Tipo NDB-DME Nombre San Sebastian Frecuencia 328 KHZ
Tipo VOR-DME Nombre San Sebastian Frecuencia 117900 KHZ